sensor_id;sensor_type;location;lat;lon;timestamp;temperature;humidity
2855;DHT22;1435;49.472;10.940;2022-12-24T00:00:54;12.30;99.90
2855;DHT22;1435;49.472;10.940;2022-12-24T00:05:56;12.30;99.90
2855;DHT22;1435;49.472;10.940;2022-12-24T00:10:59;12.30;99.90
2855;DHT22;1435;49.472;10.940;2022-12-24T00:16:01;12.20;99.90
2855;DHT22;1435;49.472;10.940;2022-12-24T00:21:03;12.10;99.90
2855;DHT22;1435;49.472;10.940;2022-12-24T00:26:07;12.20;99.90
2855;DHT22;1435;49.472;10.940;2022-12-24T00:31:11;12.10;99.90
2855;DHT22;1435;49.472;10.940;2022-12-24T00:36:14;12.10;99.90
2855;DHT22;1435;49.472;10.940;2022-12-24T00:41:17;12.10;99.90
2855;DHT22;1435;49.472;10.940;2022-12-24T00:46:26;12.10;99.90
2855;DHT22;1435;49.472;10.940;2022-12-24T00:51:28;12.00;99.90
2855;DHT22;1435;49.472;10.940;2022-12-24T00:56:31;12.00;99.90
2855;DHT22;1435;49.472;10.940;2022-12-24T01:01:33;12.00;99.90
2855;DHT22;1435;49.472;10.940;2022-12-24T01:06:36;12.00;99.90
2855;DHT22;1435;49.472;10.940;2022-12-24T01:11:39;11.90;99.90
2855;DHT22;1435;49.472;10.940;2022-12-24T01:16:40;11.90;99.90
2855;DHT22;1435;49.472;10.940;2022-12-24T01:21:42;11.70;99.90
2855;DHT22;1435;49.472;10.940;2022-12-24T01:26:45;11.70;99.90
2855;DHT22;1435;49.472;10.940;2022-12-24T01:31:47;11.70;99.90
2855;DHT22;1435;49.472;10.940;2022-12-24T01:36:49;11.70;99.90
2855;DHT22;1435;49.472;10.940;2022-12-24T01:41:52;11.60;99.90
2855;DHT22;1435;49.472;10.940;2022-12-24T01:47:14;11.60;99.90
2855;DHT22;1435;49.472;10.940;2022-12-24T01:52:19;11.60;99.90
2855;DHT22;1435;49.472;10.940;2022-12-24T01:57:25;11.60;99.90
2855;DHT22;1435;49.472;10.940;2022-12-24T02:02:29;11.60;99.90
2855;DHT22;1435;49.472;10.940;2022-12-24T02:07:33;11.60;99.90
2855;DHT22;1435;49.472;10.940;2022-12-24T02:12:37;11.60;99.90
2855;DHT22;1435;49.472;10.940;2022-12-24T02:17:46;11.50;99.90
2855;DHT22;1435;49.472;10.940;2022-12-24T02:28:40;11.40;99.90
2855;DHT22;1435;49.472;10.940;2022-12-24T02:33:49;11.50;99.90
2855;DHT22;1435;49.472;10.940;2022-12-24T02:38:59;11.50;99.90
2855;DHT22;1435;49.472;10.940;2022-12-24T02:44:01;11.40;99.90
2855;DHT22;1435;49.472;10.940;2022-12-24T02:49:05;11.40;99.90
2855;DHT22;1435;49.472;10.940;2022-12-24T02:54:07;11.30;99.90
2855;DHT22;1435;49.472;10.940;2022-12-24T02:59:28;11.40;99.90
2855;DHT22;1435;49.472;10.940;2022-12-24T03:04:41;11.40;99.90
2855;DHT22;1435;49.472;10.940;2022-12-24T03:09:55;11.40;99.90
2855;DHT22;1435;49.472;10.940;2022-12-24T03:14:57;11.50;99.90
2855;DHT22;1435;49.472;10.940;2022-12-24T03:20:02;11.40;99.90
2855;DHT22;1435;49.472;10.940;2022-12-24T03:25:04;11.50;99.90
2855;DHT22;1435;49.472;10.940;2022-12-24T03:30:10;11.40;99.90
2855;DHT22;1435;49.472;10.940;2022-12-24T03:35:14;11.40;99.90
2855;DHT22;1435;49.472;10.940;2022-12-24T03:40:16;11.40;99.90
2855;DHT22;1435;49.472;10.940;2022-12-24T03:45:18;11.40;99.90
2855;DHT22;1435;49.472;10.940;2022-12-24T03:50:21;11.40;99.90
2855;DHT22;1435;49.472;10.940;2022-12-24T03:55:23;11.30;99.90
2855;DHT22;1435;49.472;10.940;2022-12-24T04:00:25;11.30;99.90
2855;DHT22;1435;49.472;10.940;2022-12-24T04:05:28;11.30;99.90
2855;DHT22;1435;49.472;10.940;2022-12-24T04:10:30;11.30;99.90
2855;DHT22;1435;49.472;10.940;2022-12-24T04:15:31;11.20;99.90
2855;DHT22;1435;49.472;10.940;2022-12-24T04:20:34;11.20;99.90
2855;DHT22;1435;49.472;10.940;2022-12-24T04:25:36;11.20;99.90
2855;DHT22;1435;49.472;10.940;2022-12-24T04:30:38;11.20;99.90
2855;DHT22;1435;49.472;10.940;2022-12-24T04:35:42;11.10;99.90
2855;DHT22;1435;49.472;10.940;2022-12-24T04:40:43;11.10;99.90
2855;DHT22;1435;49.472;10.940;2022-12-24T04:45:45;11.20;99.90
2855;DHT22;1435;49.472;10.940;2022-12-24T04:50:48;11.10;99.90
2855;DHT22;1435;49.472;10.940;2022-12-24T04:55:50;11.10;99.90
2855;DHT22;1435;49.472;10.940;2022-12-24T05:00:52;11.00;99.90
2855;DHT22;1435;49.472;10.940;2022-12-24T05:06:01;10.90;99.90
2855;DHT22;1435;49.472;10.940;2022-12-24T05:11:03;10.90;99.90
2855;DHT22;1435;49.472;10.940;2022-12-24T05:16:05;10.80;99.90
2855;DHT22;1435;49.472;10.940;2022-12-24T05:21:10;10.80;99.90
2855;DHT22;1435;49.472;10.940;2022-12-24T05:26:15;10.90;99.90
2855;DHT22;1435;49.472;10.940;2022-12-24T05:31:24;10.90;99.90
2855;DHT22;1435;49.472;10.940;2022-12-24T05:36:28;10.90;99.90
2855;DHT22;1435;49.472;10.940;2022-12-24T05:41:30;11.00;99.90
2855;DHT22;1435;49.472;10.940;2022-12-24T05:46:32;10.90;99.90
2855;DHT22;1435;49.472;10.940;2022-12-24T05:51:35;11.10;99.90
2855;DHT22;1435;49.472;10.940;2022-12-24T05:56:36;11.00;99.90
2855;DHT22;1435;49.472;10.940;2022-12-24T06:01:38;11.00;99.90
2855;DHT22;1435;49.472;10.940;2022-12-24T06:06:41;11.00;99.90
2855;DHT22;1435;49.472;10.940;2022-12-24T06:11:43;11.00;99.90
2855;DHT22;1435;49.472;10.940;2022-12-24T06:16:45;11.00;99.90
2855;DHT22;1435;49.472;10.940;2022-12-24T06:21:48;11.00;99.90
2855;DHT22;1435;49.472;10.940;2022-12-24T06:26:49;11.10;99.90
2855;DHT22;1435;49.472;10.940;2022-12-24T06:31:51;11.00;99.90
2855;DHT22;1435;49.472;10.940;2022-12-24T06:36:54;11.00;99.90
2855;DHT22;1435;49.472;10.940;2022-12-24T06:41:56;11.00;99.90
2855;DHT22;1435;49.472;10.940;2022-12-24T06:46:58;11.00;99.90
2855;DHT22;1435;49.472;10.940;2022-12-24T06:52:01;10.90;99.90
2855;DHT22;1435;49.472;10.940;2022-12-24T06:57:03;11.00;99.90
2855;DHT22;1435;49.472;10.940;2022-12-24T07:02:07;11.00;99.90
2855;DHT22;1435;49.472;10.940;2022-12-24T07:07:10;11.00;99.90
2855;DHT22;1435;49.472;10.940;2022-12-24T07:12:12;11.10;99.90
2855;DHT22;1435;49.472;10.940;2022-12-24T07:17:13;11.10;99.90
2855;DHT22;1435;49.472;10.940;2022-12-24T07:22:17;11.10;99.90
2855;DHT22;1435;49.472;10.940;2022-12-24T07:27:19;11.00;99.90
2855;DHT22;1435;49.472;10.940;2022-12-24T07:32:21;11.10;99.90
2855;DHT22;1435;49.472;10.940;2022-12-24T07:37:24;11.10;99.90
2855;DHT22;1435;49.472;10.940;2022-12-24T07:42:26;11.00;99.90
2855;DHT22;1435;49.472;10.940;2022-12-24T07:47:28;11.10;99.90
2855;DHT22;1435;49.472;10.940;2022-12-24T07:52:32;11.20;99.90
2855;DHT22;1435;49.472;10.940;2022-12-24T07:57:34;11.10;99.90
2855;DHT22;1435;49.472;10.940;2022-12-24T08:02:36;11.20;99.90
2855;DHT22;1435;49.472;10.940;2022-12-24T08:07:39;11.20;99.90
2855;DHT22;1435;49.472;10.940;2022-12-24T08:12:41;11.20;99.90
2855;DHT22;1435;49.472;10.940;2022-12-24T08:17:43;11.20;99.90
2855;DHT22;1435;49.472;10.940;2022-12-24T08:22:46;11.20;99.90
2855;DHT22;1435;49.472;10.940;2022-12-24T08:27:48;11.30;99.90
2855;DHT22;1435;49.472;10.940;2022-12-24T08:32:50;11.20;99.90
2855;DHT22;1435;49.472;10.940;2022-12-24T08:37:53;11.20;99.90
2855;DHT22;1435;49.472;10.940;2022-12-24T08:42:55;11.30;99.90
2855;DHT22;1435;49.472;10.940;2022-12-24T08:47:58;11.30;99.90
2855;DHT22;1435;49.472;10.940;2022-12-24T08:53:01;11.20;99.90
2855;DHT22;1435;49.472;10.940;2022-12-24T08:58:03;11.30;99.90
2855;DHT22;1435;49.472;10.940;2022-12-24T09:03:04;11.20;99.90
2855;DHT22;1435;49.472;10.940;2022-12-24T09:08:08;11.30;99.90
2855;DHT22;1435;49.472;10.940;2022-12-24T09:13:10;11.30;99.90
2855;DHT22;1435;49.472;10.940;2022-12-24T09:18:11;11.30;99.90
2855;DHT22;1435;49.472;10.940;2022-12-24T09:23:14;11.40;99.90
2855;DHT22;1435;49.472;10.940;2022-12-24T09:28:16;11.40;99.90
2855;DHT22;1435;49.472;10.940;2022-12-24T09:33:18;11.40;99.90
2855;DHT22;1435;49.472;10.940;2022-12-24T09:38:21;11.30;99.90
2855;DHT22;1435;49.472;10.940;2022-12-24T09:43:24;11.40;99.90
2855;DHT22;1435;49.472;10.940;2022-12-24T09:48:29;11.40;99.90
2855;DHT22;1435;49.472;10.940;2022-12-24T09:53:36;11.30;99.90
2855;DHT22;1435;49.472;10.940;2022-12-24T09:58:44;11.30;99.90
2855;DHT22;1435;49.472;10.940;2022-12-24T10:03:46;11.40;99.90
2855;DHT22;1435;49.472;10.940;2022-12-24T10:09:00;11.30;99.90
2855;DHT22;1435;49.472;10.940;2022-12-24T10:14:13;11.40;99.90
2855;DHT22;1435;49.472;10.940;2022-12-24T10:19:22;11.40;99.90
2855;DHT22;1435;49.472;10.940;2022-12-24T10:24:28;11.40;99.90
2855;DHT22;1435;49.472;10.940;2022-12-24T10:29:34;11.40;99.90
2855;DHT22;1435;49.472;10.940;2022-12-24T10:34:40;11.40;99.90
2855;DHT22;1435;49.472;10.940;2022-12-24T10:39:44;11.50;99.90
2855;DHT22;1435;49.472;10.940;2022-12-24T10:44:49;11.60;99.90
2855;DHT22;1435;49.472;10.940;2022-12-24T10:49:59;11.70;99.90
2855;DHT22;1435;49.472;10.940;2022-12-24T10:55:09;11.70;99.90
2855;DHT22;1435;49.472;10.940;2022-12-24T11:00:19;11.80;99.90
2855;DHT22;1435;49.472;10.940;2022-12-24T11:05:29;11.90;99.90
2855;DHT22;1435;49.472;10.940;2022-12-24T11:10:35;11.90;99.90
2855;DHT22;1435;49.472;10.940;2022-12-24T11:15:37;12.00;99.90
2855;DHT22;1435;49.472;10.940;2022-12-24T11:20:39;11.90;99.90
2855;DHT22;1435;49.472;10.940;2022-12-24T11:25:47;12.00;99.90
2855;DHT22;1435;49.472;10.940;2022-12-24T11:30:59;12.10;99.90
2855;DHT22;1435;49.472;10.940;2022-12-24T11:36:04;12.10;99.90
2855;DHT22;1435;49.472;10.940;2022-12-24T11:41:10;12.20;99.90
2855;DHT22;1435;49.472;10.940;2022-12-24T11:46:35;12.30;99.90
2855;DHT22;1435;49.472;10.940;2022-12-24T11:51:38;12.30;99.90
2855;DHT22;1435;49.472;10.940;2022-12-24T11:56:44;12.30;99.90
2855;DHT22;1435;49.472;10.940;2022-12-24T12:01:53;12.30;99.90
2855;DHT22;1435;49.472;10.940;2022-12-24T12:07:00;12.20;99.90
2855;DHT22;1435;49.472;10.940;2022-12-24T12:12:08;12.30;99.90
2855;DHT22;1435;49.472;10.940;2022-12-24T12:17:23;12.20;99.90
2855;DHT22;1435;49.472;10.940;2022-12-24T12:22:31;12.30;99.90
2855;DHT22;1435;49.472;10.940;2022-12-24T12:27:41;12.30;99.90
2855;DHT22;1435;49.472;10.940;2022-12-24T12:32:49;12.30;99.90
2855;DHT22;1435;49.472;10.940;2022-12-24T12:37:56;12.40;99.90
2855;DHT22;1435;49.472;10.940;2022-12-24T12:43:05;12.50;99.90
2855;DHT22;1435;49.472;10.940;2022-12-24T12:48:38;12.40;99.90
2855;DHT22;1435;49.472;10.940;2022-12-24T12:53:51;12.50;99.90
2855;DHT22;1435;49.472;10.940;2022-12-24T12:59:02;12.50;99.90
2855;DHT22;1435;49.472;10.940;2022-12-24T13:04:29;12.50;99.90
2855;DHT22;1435;49.472;10.940;2022-12-24T13:15:28;12.50;99.90
2855;DHT22;1435;49.472;10.940;2022-12-24T13:20:36;12.40;99.90
2855;DHT22;1435;49.472;10.940;2022-12-24T13:25:42;12.40;99.90
2855;DHT22;1435;49.472;10.940;2022-12-24T13:30:46;12.50;99.90
2855;DHT22;1435;49.472;10.940;2022-12-24T13:35:58;12.40;99.90
2855;DHT22;1435;49.472;10.940;2022-12-24T13:46:51;12.50;99.90
2855;DHT22;1435;49.472;10.940;2022-12-24T13:52:16;12.60;99.90
2855;DHT22;1435;49.472;10.940;2022-12-24T13:57:28;12.70;99.90
2855;DHT22;1435;49.472;10.940;2022-12-24T14:02:36;12.80;99.90
2855;DHT22;1435;49.472;10.940;2022-12-24T14:07:44;13.10;99.90
2855;DHT22;1435;49.472;10.940;2022-12-24T14:12:48;13.30;99.90
2855;DHT22;1435;49.472;10.940;2022-12-24T14:17:51;13.60;99.90
2855;DHT22;1435;49.472;10.940;2022-12-24T14:22:54;13.80;99.90
2855;DHT22;1435;49.472;10.940;2022-12-24T14:28:02;14.00;99.90
2855;DHT22;1435;49.472;10.940;2022-12-24T14:33:28;14.10;99.90
2855;DHT22;1435;49.472;10.940;2022-12-24T14:38:31;14.00;99.90
2855;DHT22;1435;49.472;10.940;2022-12-24T14:43:47;13.90;99.90
2855;DHT22;1435;49.472;10.940;2022-12-24T14:48:54;13.60;99.90
2855;DHT22;1435;49.472;10.940;2022-12-24T14:54:25;13.40;99.90
2855;DHT22;1435;49.472;10.940;2022-12-24T14:59:29;13.20;99.90
2855;DHT22;1435;49.472;10.940;2022-12-24T15:04:33;13.00;99.90
2855;DHT22;1435;49.472;10.940;2022-12-24T15:09:35;12.90;99.90
2855;DHT22;1435;49.472;10.940;2022-12-24T15:14:41;12.80;99.90
2855;DHT22;1435;49.472;10.940;2022-12-24T15:19:47;12.80;99.90
2855;DHT22;1435;49.472;10.940;2022-12-24T15:24:52;12.70;99.90
2855;DHT22;1435;49.472;10.940;2022-12-24T15:29:55;12.60;99.90
2855;DHT22;1435;49.472;10.940;2022-12-24T15:34:59;12.60;99.90
2855;DHT22;1435;49.472;10.940;2022-12-24T15:40:07;12.50;99.90
2855;DHT22;1435;49.472;10.940;2022-12-24T15:45:13;12.40;99.90
2855;DHT22;1435;49.472;10.940;2022-12-24T15:50:21;12.40;99.90
2855;DHT22;1435;49.472;10.940;2022-12-24T15:55:32;12.30;99.90
2855;DHT22;1435;49.472;10.940;2022-12-24T16:00:34;12.10;99.90
2855;DHT22;1435;49.472;10.940;2022-12-24T16:05:38;11.90;99.90
2855;DHT22;1435;49.472;10.940;2022-12-24T16:10:41;11.70;99.90
2855;DHT22;1435;49.472;10.940;2022-12-24T16:15:46;11.40;99.90
2855;DHT22;1435;49.472;10.940;2022-12-24T16:20:51;11.10;99.90
2855;DHT22;1435;49.472;10.940;2022-12-24T16:25:53;11.00;99.90
2855;DHT22;1435;49.472;10.940;2022-12-24T16:30:55;10.90;99.90
2855;DHT22;1435;49.472;10.940;2022-12-24T16:35:58;10.80;99.90
2855;DHT22;1435;49.472;10.940;2022-12-24T16:41:00;10.60;99.90
2855;DHT22;1435;49.472;10.940;2022-12-24T16:46:04;10.50;99.90
2855;DHT22;1435;49.472;10.940;2022-12-24T16:51:07;10.40;99.90
2855;DHT22;1435;49.472;10.940;2022-12-24T16:56:09;10.30;99.90
2855;DHT22;1435;49.472;10.940;2022-12-24T17:01:11;10.30;99.90
2855;DHT22;1435;49.472;10.940;2022-12-24T17:06:14;10.40;99.90
2855;DHT22;1435;49.472;10.940;2022-12-24T17:11:16;10.40;99.90
2855;DHT22;1435;49.472;10.940;2022-12-24T17:16:17;10.50;99.90
2855;DHT22;1435;49.472;10.940;2022-12-24T17:21:20;10.60;99.90
2855;DHT22;1435;49.472;10.940;2022-12-24T17:26:22;10.70;99.90
2855;DHT22;1435;49.472;10.940;2022-12-24T17:31:24;10.70;99.90
2855;DHT22;1435;49.472;10.940;2022-12-24T17:36:27;10.60;99.90
2855;DHT22;1435;49.472;10.940;2022-12-24T17:41:29;10.70;99.90
2855;DHT22;1435;49.472;10.940;2022-12-24T17:46:30;10.70;99.90
2855;DHT22;1435;49.472;10.940;2022-12-24T17:51:34;10.70;99.90
2855;DHT22;1435;49.472;10.940;2022-12-24T17:56:36;10.70;99.90
2855;DHT22;1435;49.472;10.940;2022-12-24T18:01:38;10.70;99.90
2855;DHT22;1435;49.472;10.940;2022-12-24T18:06:41;10.70;99.90
2855;DHT22;1435;49.472;10.940;2022-12-24T18:11:43;10.80;99.90
2855;DHT22;1435;49.472;10.940;2022-12-24T18:16:47;10.80;99.90
2855;DHT22;1435;49.472;10.940;2022-12-24T18:21:51;10.80;99.90
2855;DHT22;1435;49.472;10.940;2022-12-24T18:26:52;10.80;99.90
2855;DHT22;1435;49.472;10.940;2022-12-24T18:31:54;10.80;99.90
2855;DHT22;1435;49.472;10.940;2022-12-24T18:36:57;10.80;99.90
2855;DHT22;1435;49.472;10.940;2022-12-24T18:41:59;10.80;99.90
2855;DHT22;1435;49.472;10.940;2022-12-24T18:47:01;10.80;99.90
2855;DHT22;1435;49.472;10.940;2022-12-24T18:52:04;10.80;99.90
2855;DHT22;1435;49.472;10.940;2022-12-24T18:57:06;10.90;99.90
2855;DHT22;1435;49.472;10.940;2022-12-24T19:02:08;10.90;99.90
2855;DHT22;1435;49.472;10.940;2022-12-24T19:07:11;10.90;99.90
2855;DHT22;1435;49.472;10.940;2022-12-24T19:12:13;10.90;99.90
2855;DHT22;1435;49.472;10.940;2022-12-24T19:17:16;10.90;99.90
2855;DHT22;1435;49.472;10.940;2022-12-24T19:22:19;10.90;99.90
2855;DHT22;1435;49.472;10.940;2022-12-24T19:27:20;10.90;99.90
2855;DHT22;1435;49.472;10.940;2022-12-24T19:32:22;10.80;99.90
2855;DHT22;1435;49.472;10.940;2022-12-24T19:37:25;10.80;99.90
2855;DHT22;1435;49.472;10.940;2022-12-24T19:42:27;10.80;99.90
2855;DHT22;1435;49.472;10.940;2022-12-24T19:47:30;10.80;99.90
2855;DHT22;1435;49.472;10.940;2022-12-24T19:52:33;10.80;99.90
2855;DHT22;1435;49.472;10.940;2022-12-24T19:57:35;10.80;99.90
2855;DHT22;1435;49.472;10.940;2022-12-24T20:02:36;10.80;99.90
2855;DHT22;1435;49.472;10.940;2022-12-24T20:07:40;10.70;99.90
2855;DHT22;1435;49.472;10.940;2022-12-24T20:12:41;10.80;99.90
2855;DHT22;1435;49.472;10.940;2022-12-24T20:17:43;10.80;99.90
2855;DHT22;1435;49.472;10.940;2022-12-24T20:22:52;10.80;99.90
2855;DHT22;1435;49.472;10.940;2022-12-24T20:27:54;10.80;99.90
2855;DHT22;1435;49.472;10.940;2022-12-24T20:32:56;10.80;99.90
2855;DHT22;1435;49.472;10.940;2022-12-24T20:37:59;10.80;99.90
2855;DHT22;1435;49.472;10.940;2022-12-24T20:43:01;10.80;99.90
2855;DHT22;1435;49.472;10.940;2022-12-24T20:48:03;10.80;99.90
2855;DHT22;1435;49.472;10.940;2022-12-24T20:53:06;10.80;99.90
2855;DHT22;1435;49.472;10.940;2022-12-24T20:58:09;10.80;99.90
2855;DHT22;1435;49.472;10.940;2022-12-24T21:03:12;10.70;99.90
2855;DHT22;1435;49.472;10.940;2022-12-24T21:08:15;10.70;99.90
2855;DHT22;1435;49.472;10.940;2022-12-24T21:13:17;10.70;99.90
2855;DHT22;1435;49.472;10.940;2022-12-24T21:18:18;10.70;99.90
2855;DHT22;1435;49.472;10.940;2022-12-24T21:23:23;10.60;99.90
2855;DHT22;1435;49.472;10.940;2022-12-24T21:28:26;10.60;99.90
2855;DHT22;1435;49.472;10.940;2022-12-24T21:33:29;10.50;99.90
2855;DHT22;1435;49.472;10.940;2022-12-24T21:38:33;10.50;99.90
2855;DHT22;1435;49.472;10.940;2022-12-24T21:43:35;10.60;99.90
2855;DHT22;1435;49.472;10.940;2022-12-24T21:48:37;10.50;99.90
2855;DHT22;1435;49.472;10.940;2022-12-24T21:53:59;10.60;99.90
2855;DHT22;1435;49.472;10.940;2022-12-24T21:59:18;10.60;99.90
2855;DHT22;1435;49.472;10.940;2022-12-24T22:04:20;10.60;99.90
2855;DHT22;1435;49.472;10.940;2022-12-24T22:09:23;10.60;99.90
2855;DHT22;1435;49.472;10.940;2022-12-24T22:14:42;10.60;99.90
2855;DHT22;1435;49.472;10.940;2022-12-24T22:19:44;10.60;99.90
2855;DHT22;1435;49.472;10.940;2022-12-24T22:24:47;10.60;99.90
2855;DHT22;1435;49.472;10.940;2022-12-24T22:29:48;10.50;99.90
2855;DHT22;1435;49.472;10.940;2022-12-24T22:34:50;10.60;99.90
2855;DHT22;1435;49.472;10.940;2022-12-24T22:39:54;10.50;99.90
2855;DHT22;1435;49.472;10.940;2022-12-24T22:44:56;10.60;99.90
2855;DHT22;1435;49.472;10.940;2022-12-24T22:49:57;10.50;99.90
2855;DHT22;1435;49.472;10.940;2022-12-24T22:55:01;10.50;99.90
2855;DHT22;1435;49.472;10.940;2022-12-24T23:00:09;10.50;99.90
2855;DHT22;1435;49.472;10.940;2022-12-24T23:05:13;10.50;99.90
2855;DHT22;1435;49.472;10.940;2022-12-24T23:10:16;10.50;99.90
2855;DHT22;1435;49.472;10.940;2022-12-24T23:15:18;10.50;99.90
2855;DHT22;1435;49.472;10.940;2022-12-24T23:20:20;10.50;99.90
2855;DHT22;1435;49.472;10.940;2022-12-24T23:25:23;10.50;99.90
2855;DHT22;1435;49.472;10.940;2022-12-24T23:30:25;10.40;99.90
2855;DHT22;1435;49.472;10.940;2022-12-24T23:35:27;10.40;99.90
2855;DHT22;1435;49.472;10.940;2022-12-24T23:40:30;10.40;99.90
2855;DHT22;1435;49.472;10.940;2022-12-24T23:45:32;10.30;99.90
2855;DHT22;1435;49.472;10.940;2022-12-24T23:50:33;10.30;99.90
2855;DHT22;1435;49.472;10.940;2022-12-24T23:55:37;10.20;99.90
